aviador You're here:

KLQK Decoded Metar

in
Report Time2017-10-17 19:55:00
UTC Time2017-10-17 20:11:08
Flight Rules vfr VFR
Wind110° at 05 kt
W.Decomp.*RWY 05: 2.5 kt HW 4.3 kt RCW
W.Rank110° ranks 18
Current wind is above 110° avg. (4.8)
Visibility9999 m
Phenomena:N/A
Clouds:N/A
Expected CloudBase > 5,600 ft AGL from Temp-Dew spread
CeilingNone
Temp19°C
Dew Point05°C (40% RH)
AAT16.1°C
QNH1025 hPa
Raw Report
KLQK 171955Z AUTO 11005KT 10SM CLR 19/05 A3027 RMK AO2
T01910046=

Extra information for KLQK:More info

Social comments